首页
METAR-TAF:

METAR-TAF

机场 :

Spangdahlem, 德国

纬度: 49-59N, 经度: 006-42E, 海拔: 365米

当前天气观测

该预报发布于21分钟前的06:38 UTC
风速5节,风向东转东北
温度 -1°C
湿度 100%
气压 1010 hPa
能見度: 3200
天空无云
轻雾

METAR: ETAD 170638Z AUTO 07005KT 3200 R23/1400 BR CLR M01/M01 A2982 RMK AO2 VIS 3200V5000 VIS 0800 RWY05 SLP108 $

时间: 07:59 (06:59 UTC)

预报

该预报发布于12小时和4分钟前的18:55 UTC
预报有效从16日的 19点(UTC)到 17日的 21点(UTC)
风速6节,风向
能见度10公里或以上
少量云层高于20000英尺
成为
从 17日的 02点(UTC)到 17日的 03点(UTC)
风速6节,风向东北
能見度: 8000
少量云层高于500英尺
轻雾
短暂存在
从 17日的 04点(UTC)到 17日的 08点(UTC)
能見度: 0800
多云层高于300英尺
冻雾
成为
从 17日的 08点(UTC)到 17日的 09点(UTC)
风速12节,风向东北,有时为18节阵风
能见度10公里或以上
少量云层高于700英尺
多云层高于15000英尺
成为
从 17日的 14点(UTC)到 17日的 15点(UTC)
风速15节,风向北转东北,有时为20节阵风
能见度10公里或以上
散云层高于1500英尺
阴天层高于2000英尺
成为
从 17日的 19点(UTC)到 17日的 20点(UTC)
风速15节,风向北转东北,有时为25节阵风
能見度: 1711
阴天层高于500英尺
小阵雨

TAF: ETAD 161855Z 1619/1721 08006KT 9999 FEW200 QNH2975INS BECMG 1702/1703 05006KT 8000 BR FEW005 QNH2978INS TEMPO 1704/1708 0800 FZFG BKN003 BECMG 1708/1709 04012G18KT 9999 NSW FEW007 BKN150 QNH2972INS BECMG 1714/1715 03015G20KT 9999 SCT015 OVC020 610409 QNH2964INS BECMG 1719/1720 03015G25KT 8000 -SHRA OVC005 610509 510002 QNH2964INS TX04/1715Z TNM02/1704Z LAST NO AMDS AFT 1619 NEXT 1711

超过4000个机场的气象观测和天气预报(METAR&TAF报告)。

可查询的气象台以黄色和红色小点在地图上表示。

将鼠标移到小点上方,可查看气象台名称。

然后点击查看天气观测和预报。

如需切换地图:点击带黑十字的绿色按钮放大地图;点击带横线的绿色按钮缩小地图;或者点击绿色箭头查看邻近地区的地图。


METAR-TAF: